sensor_id;sensor_type;location;lat;lon;timestamp;pressure;altitude;pressure_sealevel;temperature;humidity
59274;BME280;45044;41.572;24.730;2024-02-14T00:00:58;90726.22;;;2.71;100.00
59274;BME280;45044;41.572;24.730;2024-02-14T00:03:25;90708.06;;;2.87;100.00
59274;BME280;45044;41.572;24.730;2024-02-14T00:05:52;90712.00;;;3.01;100.00
59274;BME280;45044;41.572;24.730;2024-02-14T00:08:19;90709.34;;;2.97;100.00
59274;BME280;45044;41.572;24.730;2024-02-14T00:10:48;90714.75;;;3.08;100.00
59274;BME280;45044;41.572;24.730;2024-02-14T00:13:15;90718.38;;;3.03;100.00
59274;BME280;45044;41.572;24.730;2024-02-14T00:15:45;90717.78;;;3.10;100.00
59274;BME280;45044;41.572;24.730;2024-02-14T00:18:13;90726.25;;;3.07;100.00
59274;BME280;45044;41.572;24.730;2024-02-14T00:20:40;90724.16;;;2.96;100.00
59274;BME280;45044;41.572;24.730;2024-02-14T00:23:07;90726.66;;;3.09;100.00
59274;BME280;45044;41.572;24.730;2024-02-14T00:25:34;90727.47;;;3.13;100.00
59274;BME280;45044;41.572;24.730;2024-02-14T00:28:00;90724.16;;;3.13;100.00
59274;BME280;45044;41.572;24.730;2024-02-14T00:30:27;90727.97;;;3.19;100.00
59274;BME280;45044;41.572;24.730;2024-02-14T00:32:56;90722.16;;;3.26;100.00
59274;BME280;45044;41.572;24.730;2024-02-14T00:35:24;90721.69;;;3.20;100.00
59274;BME280;45044;41.572;24.730;2024-02-14T00:37:51;90723.38;;;3.12;100.00
59274;BME280;45044;41.572;24.730;2024-02-14T00:40:18;90714.75;;;3.08;100.00
59274;BME280;45044;41.572;24.730;2024-02-14T00:42:45;90713.06;;;3.16;100.00
59274;BME280;45044;41.572;24.730;2024-02-14T00:45:12;90723.38;;;3.12;100.00
59274;BME280;45044;41.572;24.730;2024-02-14T00:47:39;90710.88;;;2.82;100.00
59274;BME280;45044;41.572;24.730;2024-02-14T00:50:06;90716.16;;;2.85;100.00
59274;BME280;45044;41.572;24.730;2024-02-14T00:52:33;90714.75;;;2.88;100.00
59274;BME280;45044;41.572;24.730;2024-02-14T00:55:01;90712.00;;;2.81;100.00
59274;BME280;45044;41.572;24.730;2024-02-14T00:57:30;90710.97;;;2.85;100.00
59274;BME280;45044;41.572;24.730;2024-02-14T00:59:58;90709.81;;;2.83;100.00
59274;BME280;45044;41.572;24.730;2024-02-14T01:02:26;90717.28;;;2.68;100.00
59274;BME280;45044;41.572;24.730;2024-02-14T01:04:53;90715.22;;;2.58;100.00
59274;BME280;45044;41.572;24.730;2024-02-14T01:07:20;90709.38;;;2.45;100.00
59274;BME280;45044;41.572;24.730;2024-02-14T01:09:47;90721.00;;;2.35;100.00
59274;BME280;45044;41.572;24.730;2024-02-14T01:12:14;90714.16;;;2.26;100.00
59274;BME280;45044;41.572;24.730;2024-02-14T01:14:41;90714.16;;;2.26;100.00
59274;BME280;45044;41.572;24.730;2024-02-14T01:17:08;90721.53;;;2.24;100.00
59274;BME280;45044;41.572;24.730;2024-02-14T01:19:35;90732.03;;;2.64;100.00
59274;BME280;45044;41.572;24.730;2024-02-14T01:22:02;90724.31;;;2.68;100.00
59274;BME280;45044;41.572;24.730;2024-02-14T01:24:29;90722.75;;;2.63;100.00
59274;BME280;45044;41.572;24.730;2024-02-14T01:26:57;90718.81;;;2.53;100.00
59274;BME280;45044;41.572;24.730;2024-02-14T01:29:24;90724.19;;;2.44;100.00
59274;BME280;45044;41.572;24.730;2024-02-14T01:31:50;90725.53;;;2.38;100.00
59274;BME280;45044;41.572;24.730;2024-02-14T01:34:17;90727.88;;;2.43;100.00
59274;BME280;45044;41.572;24.730;2024-02-14T01:36:46;90730.13;;;2.61;100.00
59274;BME280;45044;41.572;24.730;2024-02-14T01:39:12;90734.19;;;2.62;100.00
59274;BME280;45044;41.572;24.730;2024-02-14T01:41:46;90738.06;;;2.68;100.00
59274;BME280;45044;41.572;24.730;2024-02-14T01:44:15;90737.38;;;2.71;100.00
59274;BME280;45044;41.572;24.730;2024-02-14T01:46:44;90730.78;;;2.74;100.00
59274;BME280;45044;41.572;24.730;2024-02-14T01:49:11;90739.44;;;2.82;100.00
59274;BME280;45044;41.572;24.730;2024-02-14T01:51:40;90744.91;;;2.77;100.00
59274;BME280;45044;41.572;24.730;2024-02-14T01:54:12;90739.22;;;2.87;100.00
59274;BME280;45044;41.572;24.730;2024-02-14T01:56:42;90737.69;;;2.86;100.00
59274;BME280;45044;41.572;24.730;2024-02-14T01:59:09;90743.47;;;2.79;100.00
59274;BME280;45044;41.572;24.730;2024-02-14T02:01:36;90740.06;;;2.59;100.00
59274;BME280;45044;41.572;24.730;2024-02-14T02:04:03;90740.91;;;2.63;100.00
59274;BME280;45044;41.572;24.730;2024-02-14T02:06:30;90738.91;;;2.72;100.00
59274;BME280;45044;41.572;24.730;2024-02-14T02:08:57;90735.72;;;2.63;100.00
59274;BME280;45044;41.572;24.730;2024-02-14T02:11:25;90741.75;;;2.67;100.00
59274;BME280;45044;41.572;24.730;2024-02-14T02:13:53;90751.28;;;2.79;100.00
59274;BME280;45044;41.572;24.730;2024-02-14T02:16:20;90739.22;;;2.87;100.00
59274;BME280;45044;41.572;24.730;2024-02-14T02:18:48;90745.88;;;2.88;100.00
59274;BME280;45044;41.572;24.730;2024-02-14T02:21:17;90765.56;;;2.89;100.00
59274;BME280;45044;41.572;24.730;2024-02-14T02:23:46;90758.59;;;2.93;100.00
59274;BME280;45044;41.572;24.730;2024-02-14T02:26:14;90733.63;;;3.05;100.00
59274;BME280;45044;41.572;24.730;2024-02-14T02:28:42;90756.31;;;3.08;100.00
59274;BME280;45044;41.572;24.730;2024-02-14T02:31:09;90752.88;;;3.04;100.00
59274;BME280;45044;41.572;24.730;2024-02-14T02:33:38;90755.66;;;2.95;100.00
59274;BME280;45044;41.572;24.730;2024-02-14T02:36:06;90766.13;;;2.98;100.00
59274;BME280;45044;41.572;24.730;2024-02-14T02:38:36;90768.53;;;3.07;100.00
59274;BME280;45044;41.572;24.730;2024-02-14T02:41:08;90771.22;;;3.11;100.00
59274;BME280;45044;41.572;24.730;2024-02-14T02:43:35;90758.06;;;3.04;100.00
59274;BME280;45044;41.572;24.730;2024-02-14T02:46:02;90767.28;;;3.17;100.00
59274;BME280;45044;41.572;24.730;2024-02-14T02:48:29;90777.44;;;3.06;100.00
59274;BME280;45044;41.572;24.730;2024-02-14T02:50:56;90780.25;;;3.17;100.00
59274;BME280;45044;41.572;24.730;2024-02-14T02:53:23;90781.06;;;3.02;100.00
59274;BME280;45044;41.572;24.730;2024-02-14T02:55:50;90782.31;;;2.92;100.00
59274;BME280;45044;41.572;24.730;2024-02-14T02:58:18;90783.97;;;3.00;100.00
59274;BME280;45044;41.572;24.730;2024-02-14T03:00:45;90796.13;;;3.12;100.00
59274;BME280;45044;41.572;24.730;2024-02-14T03:03:12;90784.56;;;2.93;100.00
59274;BME280;45044;41.572;24.730;2024-02-14T03:05:39;90800.38;;;3.04;100.00
59274;BME280;45044;41.572;24.730;2024-02-14T03:08:06;90784.41;;;2.86;100.00
59274;BME280;45044;41.572;24.730;2024-02-14T03:10:34;90792.47;;;2.81;100.00
59274;BME280;45044;41.572;24.730;2024-02-14T03:13:01;90790.97;;;2.80;100.00
59274;BME280;45044;41.572;24.730;2024-02-14T03:15:28;90806.88;;;2.78;100.00
59274;BME280;45044;41.572;24.730;2024-02-14T03:17:56;90796.56;;;2.82;100.00
59274;BME280;45044;41.572;24.730;2024-02-14T03:20:23;90798.13;;;3.03;100.00
59274;BME280;45044;41.572;24.730;2024-02-14T03:22:50;90791.44;;;3.02;100.00
59274;BME280;45044;41.572;24.730;2024-02-14T03:25:18;90806.34;;;3.05;100.00
59274;BME280;45044;41.572;24.730;2024-02-14T03:27:45;90811.88;;;3.03;100.00
59274;BME280;45044;41.572;24.730;2024-02-14T03:30:14;90812.88;;;2.98;100.00
59274;BME280;45044;41.572;24.730;2024-02-14T03:32:45;90819.28;;;2.85;100.00
59274;BME280;45044;41.572;24.730;2024-02-14T03:35:13;90825.28;;;2.89;100.00
59274;BME280;45044;41.572;24.730;2024-02-14T03:37:46;90826.53;;;2.95;100.00
59274;BME280;45044;41.572;24.730;2024-02-14T03:40:16;90826.69;;;3.03;100.00
59274;BME280;45044;41.572;24.730;2024-02-14T03:42:43;90803.59;;;2.97;100.00
59274;BME280;45044;41.572;24.730;2024-02-14T03:45:10;90822.38;;;2.91;100.00
59274;BME280;45044;41.572;24.730;2024-02-14T03:47:37;90819.94;;;2.82;100.00
59274;BME280;45044;41.572;24.730;2024-02-14T03:50:08;90827.06;;;2.85;100.00
59274;BME280;45044;41.572;24.730;2024-02-14T03:52:35;90810.31;;;2.82;100.00
59274;BME280;45044;41.572;24.730;2024-02-14T03:55:03;90818.75;;;2.95;100.00
59274;BME280;45044;41.572;24.730;2024-02-14T03:57:29;90823.25;;;2.98;100.00
59274;BME280;45044;41.572;24.730;2024-02-14T03:59:59;90824.78;;;2.99;100.00
59274;BME280;45044;41.572;24.730;2024-02-14T04:02:28;90830.06;;;3.03;100.00
59274;BME280;45044;41.572;24.730;2024-02-14T04:04:55;90839.31;;;3.20;100.00
59274;BME280;45044;41.572;24.730;2024-02-14T04:07:22;90832.72;;;3.23;100.00
59274;BME280;45044;41.572;24.730;2024-02-14T04:09:49;90834.81;;;3.17;100.00
59274;BME280;45044;41.572;24.730;2024-02-14T04:12:15;90841.88;;;3.01;100.00
59274;BME280;45044;41.572;24.730;2024-02-14T04:14:42;90843.72;;;3.16;100.00
59274;BME280;45044;41.572;24.730;2024-02-14T04:17:09;90836.81;;;3.08;100.00
59274;BME280;45044;41.572;24.730;2024-02-14T04:19:38;90847.97;;;3.08;100.00
59274;BME280;45044;41.572;24.730;2024-02-14T04:22:05;90851.50;;;3.00;100.00
59274;BME280;45044;41.572;24.730;2024-02-14T04:24:35;90850.75;;;2.99;100.00
59274;BME280;45044;41.572;24.730;2024-02-14T04:27:03;90844.03;;;2.98;100.00
59274;BME280;45044;41.572;24.730;2024-02-14T04:29:31;90848.50;;;2.98;100.00
59274;BME280;45044;41.572;24.730;2024-02-14T04:32:00;90860.38;;;2.99;100.00
59274;BME280;45044;41.572;24.730;2024-02-14T04:34:28;90846.47;;;3.07;100.00
59274;BME280;45044;41.572;24.730;2024-02-14T04:36:56;90856.94;;;3.11;100.00
59274;BME280;45044;41.572;24.730;2024-02-14T04:39:23;90861.31;;;3.07;100.00
59274;BME280;45044;41.572;24.730;2024-02-14T04:41:50;90866.25;;;2.96;100.00
59274;BME280;45044;41.572;24.730;2024-02-14T04:44:28;90865.06;;;2.93;100.00
59274;BME280;45044;41.572;24.730;2024-02-14T04:46:55;90845.56;;;2.99;100.00
59274;BME280;45044;41.572;24.730;2024-02-14T04:49:23;90860.31;;;2.95;100.00
59274;BME280;45044;41.572;24.730;2024-02-14T04:51:51;90864.31;;;3.09;100.00
59274;BME280;45044;41.572;24.730;2024-02-14T04:54:19;90875.88;;;2.95;100.00
59274;BME280;45044;41.572;24.730;2024-02-14T04:56:46;90861.63;;;2.89;100.00
59274;BME280;45044;41.572;24.730;2024-02-14T04:59:16;90870.09;;;2.86;100.00
59274;BME280;45044;41.572;24.730;2024-02-14T05:01:43;90867.41;;;2.82;100.00
59274;BME280;45044;41.572;24.730;2024-02-14T05:04:10;90859.78;;;2.90;100.00
59274;BME280;45044;41.572;24.730;2024-02-14T05:06:36;90864.72;;;2.95;100.00
59274;BME280;45044;41.572;24.730;2024-02-14T05:09:05;90865.50;;;2.95;100.00
59274;BME280;45044;41.572;24.730;2024-02-14T05:11:32;90865.41;;;2.92;100.00
59274;BME280;45044;41.572;24.730;2024-02-14T05:13:58;90874.22;;;2.87;100.00
59274;BME280;45044;41.572;24.730;2024-02-14T05:16:28;90880.41;;;2.98;100.00
59274;BME280;45044;41.572;24.730;2024-02-14T05:18:54;90877.97;;;2.90;100.00
59274;BME280;45044;41.572;24.730;2024-02-14T05:21:22;90880.06;;;2.84;100.00
59274;BME280;45044;41.572;24.730;2024-02-14T05:23:50;90885.25;;;2.84;100.00
59274;BME280;45044;41.572;24.730;2024-02-14T05:26:17;90881.41;;;2.94;100.00
59274;BME280;45044;41.572;24.730;2024-02-14T05:28:50;90881.91;;;2.99;100.00
59274;BME280;45044;41.572;24.730;2024-02-14T05:31:16;90859.22;;;2.80;100.00
59274;BME280;45044;41.572;24.730;2024-02-14T05:33:43;90888.69;;;2.88;100.00
59274;BME280;45044;41.572;24.730;2024-02-14T05:36:13;90898.84;;;2.93;100.00
59274;BME280;45044;41.572;24.730;2024-02-14T05:38:39;90899.75;;;3.01;100.00
59274;BME280;45044;41.572;24.730;2024-02-14T05:41:07;90906.97;;;3.08;100.00
59274;BME280;45044;41.572;24.730;2024-02-14T05:43:34;90905.81;;;3.05;100.00
59274;BME280;45044;41.572;24.730;2024-02-14T05:46:03;90909.47;;;3.04;100.00
59274;BME280;45044;41.572;24.730;2024-02-14T05:48:30;90894.41;;;3.10;100.00
59274;BME280;45044;41.572;24.730;2024-02-14T05:50:57;90915.59;;;3.12;100.00
59274;BME280;45044;41.572;24.730;2024-02-14T05:53:24;90911.97;;;3.17;100.00
59274;BME280;45044;41.572;24.730;2024-02-14T05:55:50;90915.44;;;3.05;100.00
59274;BME280;45044;41.572;24.730;2024-02-14T05:58:17;90918.44;;;3.07;100.00
59274;BME280;45044;41.572;24.730;2024-02-14T06:00:44;90922.28;;;3.13;100.00
59274;BME280;45044;41.572;24.730;2024-02-14T06:03:11;90921.72;;;3.20;100.00
59274;BME280;45044;41.572;24.730;2024-02-14T06:05:38;90924.53;;;2.98;100.00
59274;BME280;45044;41.572;24.730;2024-02-14T06:08:05;90926.50;;;3.02;100.00
59274;BME280;45044;41.572;24.730;2024-02-14T06:10:32;90923.13;;;2.85;100.00
59274;BME280;45044;41.572;24.730;2024-02-14T06:13:01;90945.81;;;2.88;100.00
59274;BME280;45044;41.572;24.730;2024-02-14T06:15:29;90939.69;;;2.96;100.00
59274;BME280;45044;41.572;24.730;2024-02-14T06:17:56;90937.28;;;2.87;100.00
59274;BME280;45044;41.572;24.730;2024-02-14T06:20:24;90941.22;;;2.97;100.00
59274;BME280;45044;41.572;24.730;2024-02-14T06:22:51;90945.06;;;3.04;100.00
59274;BME280;45044;41.572;24.730;2024-02-14T06:25:30;90950.44;;;3.11;100.00
59274;BME280;45044;41.572;24.730;2024-02-14T06:27:56;90945.56;;;3.26;100.00
59274;BME280;45044;41.572;24.730;2024-02-14T06:30:23;90944.50;;;3.27;100.00
59274;BME280;45044;41.572;24.730;2024-02-14T06:32:53;90959.31;;;3.42;100.00
59274;BME280;45044;41.572;24.730;2024-02-14T06:35:20;90952.47;;;3.34;100.00
59274;BME280;45044;41.572;24.730;2024-02-14T06:37:50;90961.50;;;3.40;100.00
59274;BME280;45044;41.572;24.730;2024-02-14T06:40:28;90962.34;;;3.44;100.00
59274;BME280;45044;41.572;24.730;2024-02-14T06:42:56;90967.38;;;3.53;100.00
59274;BME280;45044;41.572;24.730;2024-02-14T06:45:26;90959.47;;;3.50;100.00
59274;BME280;45044;41.572;24.730;2024-02-14T06:47:54;90965.00;;;3.64;100.00
59274;BME280;45044;41.572;24.730;2024-02-14T06:50:21;90968.72;;;3.63;100.00
59274;BME280;45044;41.572;24.730;2024-02-14T06:52:48;90970.50;;;3.79;100.00
59274;BME280;45044;41.572;24.730;2024-02-14T06:55:15;90977.16;;;4.12;100.00
59274;BME280;45044;41.572;24.730;2024-02-14T06:57:42;90980.88;;;4.51;100.00
59274;BME280;45044;41.572;24.730;2024-02-14T07:00:09;90978.88;;;5.07;100.00
59274;BME280;45044;41.572;24.730;2024-02-14T07:02:38;90975.06;;;5.98;100.00
59274;BME280;45044;41.572;24.730;2024-02-14T07:05:06;90979.13;;;7.26;100.00
59274;BME280;45044;41.572;24.730;2024-02-14T07:07:34;90978.34;;;7.22;100.00
59274;BME280;45044;41.572;24.730;2024-02-14T07:10:03;90985.38;;;7.18;100.00
59274;BME280;45044;41.572;24.730;2024-02-14T07:12:32;90988.03;;;7.22;100.00
59274;BME280;45044;41.572;24.730;2024-02-14T07:14:59;90988.31;;;7.13;100.00
59274;BME280;45044;41.572;24.730;2024-02-14T07:17:26;90997.38;;;6.19;100.00
59274;BME280;45044;41.572;24.730;2024-02-14T07:19:53;90994.72;;;6.16;100.00
59274;BME280;45044;41.572;24.730;2024-02-14T07:22:20;90998.78;;;5.62;100.00
59274;BME280;45044;41.572;24.730;2024-02-14T07:24:47;91012.84;;;4.91;100.00
59274;BME280;45044;41.572;24.730;2024-02-14T07:27:15;91010.53;;;4.86;100.00
59274;BME280;45044;41.572;24.730;2024-02-14T07:29:42;91008.53;;;4.99;100.00
59274;BME280;45044;41.572;24.730;2024-02-14T07:32:09;91011.56;;;5.01;100.00
59274;BME280;45044;41.572;24.730;2024-02-14T07:34:38;91009.59;;;4.94;100.00
59274;BME280;45044;41.572;24.730;2024-02-14T07:37:08;91014.66;;;4.67;100.00
59274;BME280;45044;41.572;24.730;2024-02-14T07:39:35;91012.66;;;4.80;100.00
59274;BME280;45044;41.572;24.730;2024-02-14T07:42:02;91010.34;;;4.75;100.00
59274;BME280;45044;41.572;24.730;2024-02-14T07:44:29;91022.41;;;4.83;100.00
59274;BME280;45044;41.572;24.730;2024-02-14T07:46:56;91016.78;;;4.81;100.00
59274;BME280;45044;41.572;24.730;2024-02-14T07:49:27;91016.66;;;4.74;100.00
59274;BME280;45044;41.572;24.730;2024-02-14T07:51:53;91018.16;;;4.75;100.00
59274;BME280;45044;41.572;24.730;2024-02-14T07:54:20;91025.97;;;4.75;100.00
59274;BME280;45044;41.572;24.730;2024-02-14T07:56:47;91029.53;;;4.66;100.00
59274;BME280;45044;41.572;24.730;2024-02-14T07:59:14;91030.09;;;4.56;100.00
59274;BME280;45044;41.572;24.730;2024-02-14T08:01:41;91037.91;;;4.76;100.00
59274;BME280;45044;41.572;24.730;2024-02-14T08:04:09;91045.56;;;4.88;100.00
59274;BME280;45044;41.572;24.730;2024-02-14T08:06:36;91039.66;;;4.91;100.00
59274;BME280;45044;41.572;24.730;2024-02-14T08:09:03;91051.66;;;4.96;100.00
59274;BME280;45044;41.572;24.730;2024-02-14T08:11:33;91052.34;;;4.93;100.00
59274;BME280;45044;41.572;24.730;2024-02-14T08:14:00;91039.41;;;4.77;100.00
59274;BME280;45044;41.572;24.730;2024-02-14T08:16:27;91048.47;;;4.83;100.00
59274;BME280;45044;41.572;24.730;2024-02-14T08:18:53;91051.19;;;5.10;100.00
59274;BME280;45044;41.572;24.730;2024-02-14T08:21:26;91059.53;;;5.20;100.00
59274;BME280;45044;41.572;24.730;2024-02-14T08:24:00;91049.91;;;5.24;100.00
59274;BME280;45044;41.572;24.730;2024-02-14T08:26:28;91041.94;;;5.36;100.00
59274;BME280;45044;41.572;24.730;2024-02-14T08:28:55;91050.50;;;5.37;100.00
59274;BME280;45044;41.572;24.730;2024-02-14T08:31:22;91062.66;;;5.29;100.00
59274;BME280;45044;41.572;24.730;2024-02-14T08:33:49;91061.50;;;5.26;100.00
59274;BME280;45044;41.572;24.730;2024-02-14T08:36:17;91040.94;;;5.21;100.00
59274;BME280;45044;41.572;24.730;2024-02-14T08:38:58;91065.81;;;5.38;100.00
59274;BME280;45044;41.572;24.730;2024-02-14T08:41:25;91072.41;;;5.32;100.00
59274;BME280;45044;41.572;24.730;2024-02-14T08:43:52;91075.94;;;5.44;100.00
59274;BME280;45044;41.572;24.730;2024-02-14T08:46:19;91079.75;;;5.70;100.00
59274;BME280;45044;41.572;24.730;2024-02-14T08:48:46;91080.19;;;5.52;100.00
59274;BME280;45044;41.572;24.730;2024-02-14T08:51:15;91068.81;;;5.41;100.00
59274;BME280;45044;41.572;24.730;2024-02-14T08:53:43;91081.00;;;5.56;100.00
59274;BME280;45044;41.572;24.730;2024-02-14T08:56:12;91071.97;;;5.50;100.00
59274;BME280;45044;41.572;24.730;2024-02-14T08:58:40;91082.63;;;5.65;100.00
59274;BME280;45044;41.572;24.730;2024-02-14T09:01:06;91071.91;;;5.93;100.00
59274;BME280;45044;41.572;24.730;2024-02-14T09:03:44;91092.06;;;6.20;100.00
59274;BME280;45044;41.572;24.730;2024-02-14T09:06:16;91085.75;;;6.21;100.00
59274;BME280;45044;41.572;24.730;2024-02-14T09:08:47;91093.34;;;6.30;100.00
59274;BME280;45044;41.572;24.730;2024-02-14T09:11:14;91092.25;;;6.07;100.00
59274;BME280;45044;41.572;24.730;2024-02-14T09:13:41;91089.81;;;6.18;100.00
59274;BME280;45044;41.572;24.730;2024-02-14T09:16:09;91092.44;;;6.18;100.00
59274;BME280;45044;41.572;24.730;2024-02-14T09:18:37;91094.22;;;6.38;100.00
59274;BME280;45044;41.572;24.730;2024-02-14T09:21:04;91090.59;;;6.46;100.00
59274;BME280;45044;41.572;24.730;2024-02-14T09:23:32;91092.69;;;6.64;100.00
59274;BME280;45044;41.572;24.730;2024-02-14T09:26:00;91092.19;;;6.54;100.00
59274;BME280;45044;41.572;24.730;2024-02-14T09:28:28;91092.69;;;6.64;100.00
59274;BME280;45044;41.572;24.730;2024-02-14T09:30:55;91090.03;;;6.91;100.00
59274;BME280;45044;41.572;24.730;2024-02-14T09:33:22;91087.63;;;7.09;100.00
59274;BME280;45044;41.572;24.730;2024-02-14T09:35:49;91079.88;;;6.86;100.00
59274;BME280;45044;41.572;24.730;2024-02-14T09:38:18;91086.56;;;7.14;100.00
59274;BME280;45044;41.572;24.730;2024-02-14T09:40:45;91085.00;;;7.43;100.00
59274;BME280;45044;41.572;24.730;2024-02-14T09:43:38;91076.09;;;7.48;100.00
59274;BME280;45044;41.572;24.730;2024-02-14T09:46:05;91078.00;;;7.17;100.00
59274;BME280;45044;41.572;24.730;2024-02-14T09:48:34;91079.13;;;7.54;100.00
59274;BME280;45044;41.572;24.730;2024-02-14T09:51:04;91082.63;;;7.69;100.00
59274;BME280;45044;41.572;24.730;2024-02-14T09:53:32;91080.09;;;7.80;100.00
59274;BME280;45044;41.572;24.730;2024-02-14T09:56:00;91086.94;;;7.92;100.00
59274;BME280;45044;41.572;24.730;2024-02-14T09:58:28;91093.72;;;7.97;100.00
59274;BME280;45044;41.572;24.730;2024-02-14T10:00:56;91096.22;;;7.86;100.00
59274;BME280;45044;41.572;24.730;2024-02-14T10:03:23;91089.09;;;7.41;100.00
59274;BME280;45044;41.572;24.730;2024-02-14T10:05:50;91095.72;;;7.69;100.00
59274;BME280;45044;41.572;24.730;2024-02-14T10:08:18;91091.09;;;7.97;100.00
59274;BME280;45044;41.572;24.730;2024-02-14T10:10:49;91076.84;;;7.90;100.00
59274;BME280;45044;41.572;24.730;2024-02-14T10:13:19;91089.91;;;8.36;100.00
59274;BME280;45044;41.572;24.730;2024-02-14T10:15:46;91080.34;;;8.62;100.00
59274;BME280;45044;41.572;24.730;2024-02-14T10:18:14;91088.34;;;8.91;100.00
59274;BME280;45044;41.572;24.730;2024-02-14T10:20:55;91082.97;;;8.66;100.00
59274;BME280;45044;41.572;24.730;2024-02-14T10:23:23;91086.81;;;8.79;100.00
59274;BME280;45044;41.572;24.730;2024-02-14T10:25:52;91077.53;;;8.36;100.00
59274;BME280;45044;41.572;24.730;2024-02-14T10:28:20;91088.22;;;8.69;100.00
59274;BME280;45044;41.572;24.730;2024-02-14T10:30:58;91069.97;;;8.84;100.00
59274;BME280;45044;41.572;24.730;2024-02-14T10:33:29;91078.09;;;8.64;100.00
59274;BME280;45044;41.572;24.730;2024-02-14T10:35:59;91072.63;;;8.27;100.00
59274;BME280;45044;41.572;24.730;2024-02-14T10:38:32;91069.78;;;7.98;100.00
59274;BME280;45044;41.572;24.730;2024-02-14T10:41:02;91080.97;;;7.95;100.00
59274;BME280;45044;41.572;24.730;2024-02-14T10:43:31;91076.72;;;7.34;100.00
59274;BME280;45044;41.572;24.730;2024-02-14T10:46:05;91069.97;;;7.33;100.00
59274;BME280;45044;41.572;24.730;2024-02-14T10:48:34;91071.00;;;6.90;100.00
59274;BME280;45044;41.572;24.730;2024-02-14T10:51:05;91078.22;;;6.70;100.00
59274;BME280;45044;41.572;24.730;2024-02-14T10:53:34;91078.97;;;6.70;100.00
59274;BME280;45044;41.572;24.730;2024-02-14T10:56:07;91080.84;;;7.04;100.00
59274;BME280;45044;41.572;24.730;2024-02-14T10:58:35;91083.25;;;7.17;100.00
59274;BME280;45044;41.572;24.730;2024-02-14T11:01:02;91088.53;;;7.24;100.00
59274;BME280;45044;41.572;24.730;2024-02-14T11:03:29;91083.41;;;7.31;100.00
59274;BME280;45044;41.572;24.730;2024-02-14T11:06:01;91091.00;;;7.44;100.00
59274;BME280;45044;41.572;24.730;2024-02-14T11:08:31;91095.53;;;7.51;100.00
59274;BME280;45044;41.572;24.730;2024-02-14T11:10:59;91089.97;;;7.56;100.00
59274;BME280;45044;41.572;24.730;2024-02-14T11:13:30;91088.28;;;7.75;100.00
59274;BME280;45044;41.572;24.730;2024-02-14T11:16:01;91096.41;;;7.62;100.00
59274;BME280;45044;41.572;24.730;2024-02-14T11:18:29;91096.88;;;7.34;100.00
59274;BME280;45044;41.572;24.730;2024-02-14T11:21:16;91100.03;;;7.50;100.00
59274;BME280;45044;41.572;24.730;2024-02-14T11:23:54;91091.84;;;7.55;100.00
59274;BME280;45044;41.572;24.730;2024-02-14T11:26:24;91097.16;;;7.63;100.00
59274;BME280;45044;41.572;24.730;2024-02-14T11:28:59;91098.31;;;7.31;100.00
59274;BME280;45044;41.572;24.730;2024-02-14T11:31:36;91102.59;;;7.47;100.00
59274;BME280;45044;41.572;24.730;2024-02-14T11:34:05;91088.47;;;7.17;100.00
59274;BME280;45044;41.572;24.730;2024-02-14T11:36:32;91103.44;;;7.20;100.00
59274;BME280;45044;41.572;24.730;2024-02-14T11:39:03;91102.81;;;7.30;100.00
59274;BME280;45044;41.572;24.730;2024-02-14T11:41:49;91101.78;;;7.04;100.00
59274;BME280;45044;41.572;24.730;2024-02-14T11:44:19;91098.66;;;6.95;100.00
59274;BME280;45044;41.572;24.730;2024-02-14T11:46:47;91104.75;;;7.03;100.00
59274;BME280;45044;41.572;24.730;2024-02-14T11:49:15;91093.97;;;6.77;100.00
59274;BME280;45044;41.572;24.730;2024-02-14T11:51:43;91105.00;;;6.94;100.00
59274;BME280;45044;41.572;24.730;2024-02-14T11:54:10;91103.59;;;7.00;100.00
59274;BME280;45044;41.572;24.730;2024-02-14T11:56:38;91104.78;;;7.06;100.00
59274;BME280;45044;41.572;24.730;2024-02-14T11:59:06;91105.47;;;7.03;100.00
59274;BME280;45044;41.572;24.730;2024-02-14T12:01:35;91103.91;;;6.95;100.00
59274;BME280;45044;41.572;24.730;2024-02-14T12:04:04;91100.69;;;6.78;100.00
59274;BME280;45044;41.572;24.730;2024-02-14T12:06:32;91121.38;;;6.91;100.00
59274;BME280;45044;41.572;24.730;2024-02-14T12:09:20;91117.06;;;7.02;100.00
59274;BME280;45044;41.572;24.730;2024-02-14T12:11:47;91107.69;;;6.98;100.00
59274;BME280;45044;41.572;24.730;2024-02-14T12:14:15;91109.53;;;6.66;100.00
59274;BME280;45044;41.572;24.730;2024-02-14T12:16:42;91121.91;;;6.73;100.00
59274;BME280;45044;41.572;24.730;2024-02-14T12:19:13;91110.88;;;6.56;100.00
59274;BME280;45044;41.572;24.730;2024-02-14T12:21:43;91118.22;;;6.23;100.00
59274;BME280;45044;41.572;24.730;2024-02-14T12:24:10;91124.22;;;6.51;100.00
59274;BME280;45044;41.572;24.730;2024-02-14T12:26:38;91126.22;;;6.62;100.00
59274;BME280;45044;41.572;24.730;2024-02-14T12:29:12;91129.94;;;6.33;100.00
59274;BME280;45044;41.572;24.730;2024-02-14T12:31:42;91128.41;;;6.29;100.00
59274;BME280;45044;41.572;24.730;2024-02-14T12:34:11;91123.34;;;6.40;100.00
59274;BME280;45044;41.572;24.730;2024-02-14T12:36:39;91132.63;;;6.37;100.00
59274;BME280;45044;41.572;24.730;2024-02-14T12:39:08;91136.13;;;6.02;100.00
59274;BME280;45044;41.572;24.730;2024-02-14T12:41:39;91134.28;;;5.79;100.00
59274;BME280;45044;41.572;24.730;2024-02-14T12:44:07;91135.53;;;6.08;100.00
59274;BME280;45044;41.572;24.730;2024-02-14T12:46:34;91132.19;;;6.08;100.00
59274;BME280;45044;41.572;24.730;2024-02-14T12:49:04;91140.75;;;6.32;100.00
59274;BME280;45044;41.572;24.730;2024-02-14T12:51:31;91134.56;;;6.44;100.00
59274;BME280;45044;41.572;24.730;2024-02-14T12:54:00;91138.41;;;6.50;100.00
59274;BME280;45044;41.572;24.730;2024-02-14T12:56:27;91138.91;;;6.59;100.00